createdAt,value
2018-09-19T00:00:50.103Z,3.95
2018-09-19T00:03:19.073Z,3.60
2018-09-19T00:05:47.971Z,3.50
2018-09-19T00:08:17.598Z,3.90
2018-09-19T00:10:46.514Z,4.03
2018-09-19T00:13:15.654Z,4.35
2018-09-19T00:15:44.640Z,4.58
2018-09-19T00:18:13.572Z,4.30
2018-09-19T00:20:42.496Z,3.60
2018-09-19T00:23:11.611Z,3.50
2018-09-19T00:25:40.657Z,4.45
2018-09-19T00:28:10.012Z,3.72
2018-09-19T00:30:38.908Z,3.55
2018-09-19T00:33:07.859Z,4.37
2018-09-19T00:35:36.824Z,4.80
2018-09-19T00:38:05.749Z,5.12
2018-09-19T00:40:34.705Z,3.90
2018-09-19T00:43:03.624Z,3.92
2018-09-19T00:45:32.570Z,4.75
2018-09-19T00:48:01.642Z,4.58
2018-09-19T00:50:30.637Z,4.70
2018-09-19T00:52:59.526Z,4.30
2018-09-19T00:55:28.967Z,4.17
2018-09-19T00:57:57.860Z,3.72
2018-09-19T01:00:26.791Z,3.77
2018-09-19T01:02:56.246Z,5.12
2018-09-19T01:05:25.189Z,5.17
2018-09-19T01:07:54.371Z,5.03
2018-09-19T01:10:23.871Z,4.03
2018-09-19T01:12:53.063Z,3.60
2018-09-19T01:15:22.124Z,4.90
2018-09-19T01:17:51.017Z,4.08
2018-09-19T01:20:19.907Z,3.92
2018-09-19T01:22:48.979Z,3.95
2018-09-19T01:25:17.848Z,4.42
2018-09-19T01:27:46.786Z,4.97
2018-09-19T01:30:17.712Z,4.17
2018-09-19T01:32:46.620Z,4.55
2018-09-19T01:35:15.509Z,5.12
2018-09-19T01:37:44.439Z,4.10
2018-09-19T01:40:13.332Z,4.10
2018-09-19T01:42:42.489Z,4.90
2018-09-19T01:45:11.356Z,4.62
2018-09-19T01:47:40.303Z,5.20
2018-09-19T01:50:09.638Z,5.22
2018-09-19T01:52:38.533Z,4.37
2018-09-19T01:55:07.459Z,4.20
2018-09-19T01:57:36.370Z,3.90
2018-09-19T02:00:05.341Z,5.10
2018-09-19T02:02:34.232Z,4.35
2018-09-19T02:05:03.175Z,4.30
2018-09-19T02:07:32.063Z,4.35
2018-09-19T02:10:01.024Z,4.80
2018-09-19T02:12:29.946Z,4.47
2018-09-19T02:14:58.940Z,4.60
2018-09-19T02:17:27.822Z,4.60
2018-09-19T02:19:56.757Z,4.83
2018-09-19T02:22:26.017Z,4.37
2018-09-19T02:24:55.728Z,4.80
2018-09-19T02:27:24.638Z,4.40
2018-09-19T02:29:53.523Z,5.12
2018-09-19T02:32:23.039Z,4.90
2018-09-19T02:34:51.904Z,4.58
2018-09-19T02:37:20.808Z,4.50
2018-09-19T02:39:49.689Z,4.25
2018-09-19T02:42:18.586Z,4.92
2018-09-19T02:44:48.022Z,3.70
2018-09-19T02:47:17.277Z,4.65
2018-09-19T02:49:46.234Z,3.98
2018-09-19T02:52:15.176Z,4.40
2018-09-19T02:54:44.051Z,4.47
2018-09-19T02:57:13.562Z,4.22
2018-09-19T02:59:42.958Z,5.05
2018-09-19T03:02:11.870Z,4.15
2018-09-19T03:07:09.628Z,5.30
2018-09-19T03:09:38.533Z,4.45
2018-09-19T03:12:07.527Z,3.83
2018-09-19T03:14:36.786Z,4.55
2018-09-19T03:17:05.812Z,4.97
2018-09-19T03:19:34.768Z,4.47
2018-09-19T03:22:03.636Z,4.53
2018-09-19T03:24:32.568Z,4.67
2018-09-19T03:27:01.957Z,4.60
2018-09-19T03:29:30.936Z,3.80
2018-09-19T03:32:00.121Z,5.33
2018-09-19T03:34:29.583Z,4.20
2018-09-19T03:36:58.493Z,5.10
2018-09-19T03:39:27.382Z,4.35
2018-09-19T03:41:56.372Z,4.30
2018-09-19T03:44:25.835Z,4.78
2018-09-19T03:46:54.807Z,3.90
2018-09-19T03:49:23.736Z,4.35
2018-09-19T03:51:52.731Z,4.70
2018-09-19T03:54:22.139Z,4.80
2018-09-19T03:56:51.141Z,4.00
2018-09-19T03:59:21.077Z,5.42
2018-09-19T04:01:50.240Z,4.75
2018-09-19T04:04:19.191Z,4.67
2018-09-19T04:06:48.104Z,5.03
2018-09-19T04:09:17.006Z,5.40
2018-09-19T04:11:46.770Z,4.85
2018-09-19T04:14:15.690Z,4.95
2018-09-19T04:16:45.133Z,4.30
2018-09-19T04:19:14.040Z,5.20
2018-09-19T04:21:47.640Z,4.42
2018-09-19T04:24:16.567Z,4.25
2018-09-19T04:26:46.407Z,4.28
2018-09-19T04:29:16.565Z,4.90
2018-09-19T04:31:45.818Z,4.58
2018-09-19T04:34:16.170Z,4.10
2018-09-19T04:36:45.145Z,4.55
2018-09-19T04:39:14.408Z,4.22
2018-09-19T04:41:43.459Z,5.12
2018-09-19T04:44:12.408Z,4.47
2018-09-19T04:46:41.387Z,4.42
2018-09-19T04:49:10.262Z,4.53
2018-09-19T04:51:40.474Z,4.80
2018-09-19T04:54:10.142Z,4.35
2018-09-19T04:56:39.882Z,4.40
2018-09-19T04:59:08.800Z,3.95
2018-09-19T05:01:38.664Z,3.85
2018-09-19T05:04:07.618Z,5.20
2018-09-19T05:06:37.044Z,4.62
2018-09-19T05:09:08.752Z,5.55
2018-09-19T05:11:37.716Z,4.53
2018-09-19T05:14:07.866Z,4.75
2018-09-19T05:16:36.826Z,5.53
2018-09-19T05:19:06.221Z,4.45
2018-09-19T05:21:35.104Z,4.85
2018-09-19T05:24:04.083Z,5.53
2018-09-19T05:26:33.044Z,5.55
2018-09-19T05:29:02.236Z,4.97
2018-09-19T05:31:31.177Z,4.97
2018-09-19T05:34:00.112Z,5.62
2018-09-19T05:36:29.068Z,5.65
2018-09-19T05:38:58.045Z,5.40
2018-09-19T05:41:27.339Z,5.40
2018-09-19T05:43:56.863Z,5.12
2018-09-19T05:46:25.992Z,5.70
2018-09-19T05:48:55.033Z,4.67
2018-09-19T05:51:23.944Z,5.80
2018-09-19T05:53:52.838Z,5.53
2018-09-19T05:56:21.776Z,5.62
2018-09-19T05:58:50.679Z,4.70
2018-09-19T06:01:19.611Z,5.03
2018-09-19T06:03:48.531Z,5.22
2018-09-19T06:06:17.448Z,5.03
2018-09-19T06:08:46.996Z,5.37
2018-09-19T06:11:16.469Z,5.17
2018-09-19T06:13:45.383Z,5.80
2018-09-19T06:16:14.356Z,5.20
2018-09-19T06:18:43.226Z,5.60
2018-09-19T06:21:12.131Z,6.20
2018-09-19T06:23:41.072Z,5.30
2018-09-19T06:26:09.958Z,5.83
2018-09-19T06:28:39.250Z,4.67
2018-09-19T06:31:08.395Z,4.90
2018-09-19T06:33:37.884Z,5.80
2018-09-19T06:36:07.391Z,7.07
2018-09-19T06:38:36.857Z,5.30
2018-09-19T06:41:06.046Z,4.67
2018-09-19T06:43:34.968Z,5.47
2018-09-19T06:46:03.919Z,6.10
2018-09-19T06:48:32.863Z,6.10
2018-09-19T06:51:01.906Z,5.00
2018-09-19T06:53:30.895Z,5.27
2018-09-19T06:55:59.799Z,6.00
2018-09-19T06:58:29.039Z,5.33
2018-09-19T07:00:58.059Z,4.30
2018-09-19T07:03:27.551Z,4.10
2018-09-19T07:05:56.559Z,5.20
2018-09-19T07:08:25.506Z,4.33
2018-09-19T07:10:54.915Z,4.60
2018-09-19T07:13:24.216Z,5.10
2018-09-19T07:15:53.644Z,4.50
2018-09-19T07:18:22.829Z,4.80
2018-09-19T07:20:51.937Z,4.30
2018-09-19T07:23:21.834Z,5.50
2018-09-19T07:25:51.035Z,4.33
2018-09-19T07:28:20.719Z,4.80
2018-09-19T07:30:49.937Z,4.77
2018-09-19T07:33:19.233Z,4.60
2018-09-19T07:35:49.064Z,4.60
2018-09-19T07:38:18.745Z,4.50
2018-09-19T07:40:48.036Z,5.93
2018-09-19T07:43:17.354Z,4.80
2018-09-19T07:45:46.520Z,4.33
2018-09-19T07:48:15.888Z,5.30
2018-09-19T07:50:45.037Z,6.97
2018-09-19T07:53:14.252Z,4.37
2018-09-19T07:55:43.505Z,4.83
2018-09-19T07:58:12.716Z,6.03
2018-09-19T08:00:42.084Z,4.87
2018-09-19T08:03:11.331Z,4.00
2018-09-19T08:05:41.250Z,5.23
2018-09-19T08:08:11.114Z,5.40
2018-09-19T08:10:41.039Z,5.27
2018-09-19T08:13:10.223Z,5.00
2018-09-19T08:15:39.462Z,4.20
2018-09-19T08:18:08.596Z,4.50
2018-09-19T08:20:37.869Z,4.60
2018-09-19T08:23:07.468Z,5.40
2018-09-19T08:25:37.311Z,5.43
2018-09-19T08:28:06.423Z,4.40
2018-09-19T08:30:35.868Z,4.90
2018-09-19T08:33:05.165Z,4.40
2018-09-19T08:35:34.394Z,4.57
2018-09-19T08:38:04.024Z,4.20
2018-09-19T08:40:33.268Z,4.40
2018-09-19T08:43:02.543Z,4.43
2018-09-19T08:45:31.525Z,4.33
2018-09-19T08:48:00.906Z,4.30
2018-09-19T08:50:30.206Z,4.00
2018-09-19T08:52:59.655Z,4.83
2018-09-19T08:55:28.779Z,4.33
2018-09-19T08:57:58.039Z,4.77
2018-09-19T09:00:27.164Z,4.17
2018-09-19T09:02:56.307Z,4.77
2018-09-19T09:05:25.529Z,4.70
2018-09-19T09:07:54.636Z,4.13
2018-09-19T09:10:23.771Z,3.93
2018-09-19T09:12:52.666Z,5.30
2018-09-19T09:15:21.629Z,4.67
2018-09-19T09:17:50.543Z,4.53
2018-09-19T09:20:19.483Z,4.97
2018-09-19T09:22:48.395Z,4.27
2018-09-19T09:25:17.847Z,4.80
2018-09-19T09:27:46.746Z,5.40
2018-09-19T09:30:15.715Z,4.57
2018-09-19T09:32:45.101Z,4.40
2018-09-19T09:35:14.496Z,4.40
2018-09-19T09:37:44.308Z,4.60
2018-09-19T09:40:13.326Z,5.57
2018-09-19T09:42:42.227Z,5.10
2018-09-19T09:45:11.126Z,5.63
2018-09-19T09:47:40.472Z,4.93
2018-09-19T09:50:09.397Z,5.43
2018-09-19T09:52:38.323Z,4.90
2018-09-19T09:55:07.257Z,5.17
2018-09-19T09:57:36.765Z,5.00
2018-09-19T10:00:06.890Z,4.07
2018-09-19T10:02:35.848Z,5.70
2018-09-19T10:05:05.292Z,5.77
2018-09-19T10:07:34.567Z,5.03
2018-09-19T10:10:03.503Z,4.67
2018-09-19T10:12:32.434Z,4.70
2018-09-19T10:15:01.421Z,4.30
2018-09-19T10:17:30.415Z,4.60
2018-09-19T10:19:59.363Z,4.73
2018-09-19T10:22:28.287Z,5.57
2018-09-19T10:24:57.198Z,6.20
2018-09-19T10:27:26.893Z,5.37
2018-09-19T10:29:56.399Z,4.42
2018-09-19T10:32:25.387Z,5.00
2018-09-19T10:34:54.376Z,5.47
2018-09-19T10:37:23.259Z,5.20
2018-09-19T10:39:52.282Z,4.83
2018-09-19T10:42:21.736Z,4.97
2018-09-19T10:44:50.915Z,5.72
2018-09-19T10:47:19.838Z,5.00
2018-09-19T10:49:48.862Z,4.72
2018-09-19T10:52:17.788Z,4.37
2018-09-19T10:54:46.762Z,5.60
2018-09-19T10:57:15.680Z,5.08
2018-09-19T10:59:44.625Z,6.47
2018-09-19T11:02:14.153Z,4.40
2018-09-19T11:04:43.118Z,5.33
2018-09-19T11:07:26.617Z,5.00
2018-09-19T11:09:55.548Z,4.70
2018-09-19T11:12:24.562Z,5.42
2018-09-19T11:14:53.484Z,5.40
2018-09-19T11:17:22.541Z,5.00
2018-09-19T11:19:51.516Z,5.80
2018-09-19T11:22:20.475Z,5.30
2018-09-19T11:24:49.609Z,6.17
2018-09-19T11:27:19.256Z,4.60
2018-09-19T11:29:48.147Z,5.20
2018-09-19T11:32:17.027Z,5.20
2018-09-19T11:34:46.540Z,4.37
2018-09-19T11:37:15.463Z,4.97
2018-09-19T11:39:44.919Z,5.00
2018-09-19T11:42:13.792Z,4.43
2018-09-19T11:44:42.734Z,5.40
2018-09-19T11:47:11.631Z,5.10
2018-09-19T11:49:40.542Z,4.30
2018-09-19T11:52:09.477Z,5.40
2018-09-19T11:54:38.463Z,5.80
2018-09-19T11:57:07.452Z,5.10
2018-09-19T11:59:36.433Z,4.75
2018-09-19T12:02:05.884Z,4.90
2018-09-19T12:04:34.839Z,4.75
2018-09-19T12:07:03.831Z,5.83
2018-09-19T12:09:33.443Z,5.50
2018-09-19T12:12:02.402Z,5.17
2018-09-19T12:14:31.373Z,4.62
2018-09-19T12:17:00.359Z,4.65
2018-09-19T12:19:29.326Z,5.30
2018-09-19T12:21:58.809Z,4.33
2018-09-19T12:24:27.696Z,4.63
2018-09-19T12:26:56.643Z,4.83
2018-09-19T12:29:25.594Z,4.60
2018-09-19T12:31:54.618Z,4.47
2018-09-19T12:34:23.570Z,4.55
2018-09-19T12:36:52.470Z,5.00
2018-09-19T12:39:21.388Z,5.33
2018-09-19T12:41:50.312Z,4.20
2018-09-19T12:44:19.544Z,5.00
2018-09-19T12:46:48.467Z,5.40
2018-09-19T12:49:18.764Z,5.03
2018-09-19T12:51:47.677Z,5.33
2018-09-19T12:54:17.174Z,5.30
2018-09-19T12:56:46.075Z,4.60
2018-09-19T12:59:15.656Z,5.75
2018-09-19T13:01:44.566Z,4.80
2018-09-19T13:04:13.457Z,5.33
2018-09-19T13:06:43.297Z,5.47
2018-09-19T13:09:12.619Z,4.97
2018-09-19T13:11:42.544Z,5.85
2018-09-19T13:14:11.514Z,5.27
2018-09-19T13:16:40.923Z,4.55
2018-09-19T13:19:09.843Z,5.10
2018-09-19T13:21:38.811Z,4.90
2018-09-19T13:24:07.699Z,4.80
2018-09-19T13:26:36.630Z,4.92
2018-09-19T13:29:05.631Z,5.05
2018-09-19T13:31:34.573Z,7.10
2018-09-19T13:34:03.464Z,5.45
2018-09-19T13:36:32.488Z,5.62
2018-09-19T13:39:01.391Z,4.78
2018-09-19T13:41:30.332Z,4.70
2018-09-19T13:43:59.743Z,5.10
2018-09-19T13:46:28.740Z,4.90
2018-09-19T13:49:04.723Z,4.75
2018-09-19T13:51:34.228Z,4.80
2018-09-19T13:54:04.014Z,4.83
2018-09-19T13:56:33.583Z,4.80
2018-09-19T13:59:02.487Z,5.05
2018-09-19T14:01:31.468Z,4.95
2018-09-19T14:04:00.459Z,5.17
2018-09-19T14:06:29.447Z,4.65
2018-09-19T14:08:58.454Z,4.60
2018-09-19T14:11:27.388Z,4.87
2018-09-19T14:13:56.350Z,4.60
2018-09-19T14:16:25.476Z,4.75
2018-09-19T14:18:54.440Z,5.40
2018-09-19T14:21:23.407Z,4.50
2018-09-19T14:23:52.501Z,4.95
2018-09-19T14:26:21.564Z,4.65
2018-09-19T14:28:50.528Z,5.97
2018-09-19T14:31:19.506Z,4.85
2018-09-19T14:33:48.445Z,5.30
2018-09-19T14:39:10.295Z,4.62
2018-09-19T14:41:39.216Z,5.70
2018-09-19T14:44:08.466Z,5.25
2018-09-19T14:46:37.457Z,4.50
2018-09-19T14:49:07.260Z,5.30
2018-09-19T14:51:36.230Z,5.30
2018-09-19T14:54:05.259Z,4.75
2018-09-19T14:56:34.235Z,5.15
2018-09-19T14:59:03.149Z,4.83
2018-09-19T15:01:32.130Z,4.65
2018-09-19T15:04:01.422Z,4.78
2018-09-19T15:06:30.357Z,6.33
2018-09-19T15:08:59.344Z,7.67
2018-09-19T15:11:28.250Z,6.08
2018-09-19T15:13:57.168Z,5.33
2018-09-19T15:16:26.171Z,5.72
2018-09-19T15:18:55.769Z,5.83
2018-09-19T15:21:24.660Z,6.40
2018-09-19T15:23:53.675Z,5.45
2018-09-19T15:26:22.557Z,5.75
2018-09-19T15:28:51.454Z,5.78
2018-09-19T15:31:20.429Z,5.00
2018-09-19T15:33:49.336Z,5.87
2018-09-19T15:36:18.565Z,4.87
2018-09-19T15:38:47.929Z,4.37
2018-09-19T15:41:16.816Z,6.25
2018-09-19T15:43:45.741Z,5.78
2018-09-19T15:46:15.303Z,5.53
2018-09-19T15:48:44.208Z,4.95
2018-09-19T15:51:13.099Z,5.60
2018-09-19T15:53:42.068Z,5.15
2018-09-19T15:56:11.022Z,5.53
2018-09-19T15:58:39.907Z,5.65
2018-09-19T16:01:08.924Z,5.12
2018-09-19T16:03:37.881Z,4.90
2018-09-19T16:06:06.857Z,5.92
2018-09-19T16:08:35.850Z,5.70
2018-09-19T16:11:05.248Z,5.47
2018-09-19T16:13:34.172Z,4.40
2018-09-19T16:16:03.191Z,5.50
2018-09-19T16:18:32.627Z,6.28
2018-09-19T16:21:01.637Z,4.72
2018-09-19T16:23:30.581Z,6.20
2018-09-19T16:26:00.020Z,6.35
2018-09-19T16:28:28.939Z,6.08
2018-09-19T16:30:58.017Z,6.35
2018-09-19T16:33:27.153Z,7.28
2018-09-19T16:35:56.304Z,7.58
2018-09-19T16:38:25.291Z,7.28
2018-09-19T16:40:54.242Z,7.92
2018-09-19T16:43:23.410Z,8.58
2018-09-19T16:45:52.902Z,7.33
2018-09-19T16:48:21.854Z,7.95
2018-09-19T16:50:50.824Z,8.35
2018-09-19T16:53:20.186Z,6.58
2018-09-19T16:55:49.223Z,7.45
2018-09-19T16:58:18.167Z,7.80
2018-09-19T17:00:47.890Z,8.30
2018-09-19T17:03:16.799Z,12.60
2018-09-19T17:05:45.872Z,13.00
2018-09-19T17:08:15.223Z,13.90
2018-09-19T17:10:44.161Z,12.20
2018-09-19T17:13:13.613Z,11.60
2018-09-19T17:15:42.690Z,13.53
2018-09-19T17:18:11.622Z,11.30
2018-09-19T17:20:42.456Z,11.63
2018-09-19T17:23:11.451Z,10.95
2018-09-19T17:25:42.195Z,10.63
2018-09-19T17:28:12.698Z,9.55
2018-09-19T17:30:41.798Z,10.15
2018-09-19T17:33:11.503Z,10.23
2018-09-19T17:35:40.465Z,8.53
2018-09-19T17:38:09.422Z,9.23
2018-09-19T17:40:39.396Z,9.33
2018-09-19T17:43:09.489Z,10.18
2018-09-19T17:45:38.484Z,9.33
2018-09-19T17:48:07.717Z,8.35
2018-09-19T17:50:37.188Z,10.13
2018-09-19T17:53:06.437Z,8.50
2018-09-19T17:55:35.459Z,8.90
2018-09-19T17:58:04.674Z,10.05
2018-09-19T18:00:34.102Z,11.20
2018-09-19T18:03:03.287Z,9.73
2018-09-19T18:05:32.838Z,7.75
2018-09-19T18:08:01.801Z,8.45
2018-09-19T18:10:30.890Z,7.90
2018-09-19T18:13:00.002Z,8.13
2018-09-19T18:15:28.916Z,8.78
2018-09-19T18:17:58.000Z,9.25
2018-09-19T18:20:27.055Z,9.55
2018-09-19T18:22:56.113Z,9.43
2018-09-19T18:25:26.350Z,8.78
2018-09-19T18:27:55.589Z,9.53
2018-09-19T18:30:24.544Z,9.75
2018-09-19T18:32:53.507Z,8.43
2018-09-19T18:35:23.234Z,8.88
2018-09-19T18:37:52.632Z,9.15
2018-09-19T18:40:21.665Z,10.00
2018-09-19T18:42:50.745Z,8.05
2018-09-19T18:45:19.702Z,9.75
2018-09-19T18:47:48.763Z,10.30
2018-09-19T18:50:17.682Z,10.23
2018-09-19T18:52:46.608Z,9.15
2018-09-19T18:55:16.125Z,10.32
2018-09-19T18:57:45.582Z,8.85
2018-09-19T19:00:14.505Z,9.50
2018-09-19T19:02:44.083Z,9.35
2018-09-19T19:05:12.973Z,10.23
2018-09-19T19:07:41.885Z,10.60
2018-09-19T19:10:10.913Z,10.28
2018-09-19T19:12:39.803Z,8.50
2018-09-19T19:15:08.767Z,9.48
2018-09-19T19:17:37.883Z,9.65
2018-09-19T19:20:06.861Z,9.40
2018-09-19T19:22:36.318Z,11.35
2018-09-19T19:25:05.334Z,11.93
2018-09-19T19:27:34.394Z,9.70
2018-09-19T19:30:04.059Z,9.15
2018-09-19T19:32:33.092Z,9.70
2018-09-19T19:35:02.069Z,9.53
2018-09-19T19:37:31.078Z,9.58
2018-09-19T19:40:00.072Z,11.10
2018-09-19T19:42:29.006Z,9.43
2018-09-19T19:44:57.909Z,9.98
2018-09-19T19:47:26.956Z,9.28
2018-09-19T19:49:56.568Z,9.45
2018-09-19T19:52:25.554Z,9.38
2018-09-19T19:54:54.542Z,8.38
2018-09-19T19:57:23.508Z,9.95
2018-09-19T19:59:52.891Z,10.58
2018-09-19T20:02:21.872Z,9.80
2018-09-19T20:04:50.795Z,10.60
2018-09-19T20:07:19.717Z,10.10
2018-09-19T20:09:49.342Z,12.45
2018-09-19T20:12:18.384Z,10.90
2018-09-19T20:14:47.295Z,10.70
2018-09-19T20:17:16.371Z,10.05
2018-09-19T20:19:45.318Z,9.85
2018-09-19T20:22:14.311Z,10.65
2018-09-19T20:24:44.260Z,10.03
2018-09-19T20:27:13.284Z,10.72
2018-09-19T20:29:42.211Z,11.30
2018-09-19T20:32:11.865Z,10.05
2018-09-19T20:34:41.315Z,10.90
2018-09-19T20:37:10.238Z,10.70
2018-09-19T20:39:39.258Z,11.80
2018-09-19T20:42:08.198Z,9.95
2018-09-19T20:44:37.179Z,10.25
2018-09-19T20:47:06.325Z,11.45
2018-09-19T20:49:35.243Z,9.65
2018-09-19T20:52:04.714Z,11.68
2018-09-19T20:54:34.330Z,10.93
2018-09-19T20:57:03.310Z,10.20
2018-09-19T20:59:32.804Z,12.07
2018-09-19T21:02:01.778Z,11.55
2018-09-19T21:04:30.903Z,12.47
2018-09-19T21:06:59.796Z,12.63
2018-09-19T21:09:28.733Z,11.28
2018-09-19T21:11:57.655Z,11.88
2018-09-19T21:14:26.587Z,11.70
2018-09-19T21:16:55.532Z,10.98
2018-09-19T21:19:24.478Z,12.25
2018-09-19T21:21:53.436Z,11.63
2018-09-19T21:24:22.464Z,11.18
2018-09-19T21:26:51.992Z,9.40
2018-09-19T21:29:20.911Z,11.20
2018-09-19T21:31:50.349Z,12.33
2018-09-19T21:34:19.274Z,11.85
2018-09-19T21:36:48.256Z,11.60
2018-09-19T21:39:17.256Z,12.45
2018-09-19T21:41:46.150Z,11.88
2018-09-19T21:44:15.100Z,12.30
2018-09-19T21:46:44.659Z,10.90
2018-09-19T21:49:13.602Z,10.58
2018-09-19T21:51:42.525Z,13.10
2018-09-19T21:54:12.006Z,11.33
2018-09-19T21:56:41.103Z,9.50
2018-09-19T21:59:10.065Z,12.35
2018-09-19T22:01:40.931Z,11.35
2018-09-19T22:04:09.868Z,11.63
2018-09-19T22:06:39.121Z,10.93
2018-09-19T22:09:11.084Z,11.57
2018-09-19T22:11:40.268Z,12.05
2018-09-19T22:14:10.592Z,12.35
2018-09-19T22:16:39.541Z,13.30
2018-09-19T22:19:08.490Z,11.90
2018-09-19T22:21:37.869Z,12.37
2018-09-19T22:24:07.065Z,12.68
2018-09-19T22:26:36.507Z,12.20
2018-09-19T22:29:05.494Z,11.93
2018-09-19T22:31:34.481Z,12.13
2018-09-19T22:34:03.551Z,10.40
2018-09-19T22:36:32.471Z,12.03
2018-09-19T22:39:01.452Z,12.25
2018-09-19T22:41:30.836Z,12.58
2018-09-19T22:43:59.746Z,11.80
2018-09-19T22:46:28.792Z,13.48
2018-09-19T22:48:57.866Z,11.25
2018-09-19T22:51:26.904Z,11.18
2018-09-19T22:53:56.042Z,12.18
2018-09-19T22:56:24.993Z,11.53
2018-09-19T22:58:53.958Z,11.63
2018-09-19T23:01:22.955Z,12.25
2018-09-19T23:03:51.939Z,11.85
2018-09-19T23:06:20.842Z,13.98
2018-09-19T23:08:50.294Z,12.00
2018-09-19T23:11:19.230Z,12.00
2018-09-19T23:13:48.685Z,11.97
2018-09-19T23:16:17.677Z,11.95
2018-09-19T23:18:46.626Z,13.32
2018-09-19T23:21:15.569Z,13.00
2018-09-19T23:23:44.543Z,12.55
2018-09-19T23:26:13.493Z,13.72
2018-09-19T23:28:42.479Z,12.50
2018-09-19T23:31:12.080Z,10.95
2018-09-19T23:33:41.452Z,11.85
2018-09-19T23:36:10.353Z,13.28
2018-09-19T23:38:39.392Z,11.50
2018-09-19T23:41:08.677Z,12.50
2018-09-19T23:43:37.576Z,11.88
2018-09-19T23:46:06.598Z,11.88
2018-09-19T23:48:35.524Z,11.50
2018-09-19T23:51:04.462Z,14.15
2018-09-19T23:53:33.449Z,12.60
2018-09-19T23:56:02.656Z,11.40
2018-09-19T23:58:31.547Z,13.75
